sensor_id;sensor_type;location;lat;lon;timestamp;P1;durP1;ratioP1;P2;durP2;ratioP2
9934;SDS011;5006;41.828;23.478;2023-04-01T00:00:29;4.18;;;2.05;;
9934;SDS011;5006;41.828;23.478;2023-04-01T00:01:34;3.67;;;1.95;;
9934;SDS011;5006;41.828;23.478;2023-04-01T00:02:40;5.65;;;2.38;;
9934;SDS011;5006;41.828;23.478;2023-04-01T00:03:45;3.83;;;2.22;;
9934;SDS011;5006;41.828;23.478;2023-04-01T00:04:52;4.30;;;2.15;;
9934;SDS011;5006;41.828;23.478;2023-04-01T00:05:57;4.63;;;2.20;;
9934;SDS011;5006;41.828;23.478;2023-04-01T00:07:03;4.40;;;2.00;;
9934;SDS011;5006;41.828;23.478;2023-04-01T00:08:08;4.88;;;2.28;;
9934;SDS011;5006;41.828;23.478;2023-04-01T00:09:14;3.78;;;2.20;;
9934;SDS011;5006;41.828;23.478;2023-04-01T00:10:19;3.25;;;2.05;;
9934;SDS011;5006;41.828;23.478;2023-04-01T00:11:24;4.47;;;2.60;;
9934;SDS011;5006;41.828;23.478;2023-04-01T00:12:31;6.63;;;4.88;;
9934;SDS011;5006;41.828;23.478;2023-04-01T00:13:36;7.47;;;3.53;;
9934;SDS011;5006;41.828;23.478;2023-04-01T00:14:42;6.07;;;4.18;;
9934;SDS011;5006;41.828;23.478;2023-04-01T00:15:48;10.82;;;5.72;;
9934;SDS011;5006;41.828;23.478;2023-04-01T00:16:54;5.80;;;2.30;;
9934;SDS011;5006;41.828;23.478;2023-04-01T00:17:58;6.70;;;2.85;;
9934;SDS011;5006;41.828;23.478;2023-04-01T00:19:04;6.40;;;2.85;;
9934;SDS011;5006;41.828;23.478;2023-04-01T00:20:10;5.25;;;2.60;;
9934;SDS011;5006;41.828;23.478;2023-04-01T00:21:16;5.90;;;2.97;;
9934;SDS011;5006;41.828;23.478;2023-04-01T00:22:23;7.60;;;4.40;;
9934;SDS011;5006;41.828;23.478;2023-04-01T00:23:29;7.57;;;4.22;;
9934;SDS011;5006;41.828;23.478;2023-04-01T00:24:35;8.98;;;3.47;;
9934;SDS011;5006;41.828;23.478;2023-04-01T00:25:40;6.28;;;4.45;;
9934;SDS011;5006;41.828;23.478;2023-04-01T00:26:46;13.38;;;6.70;;
9934;SDS011;5006;41.828;23.478;2023-04-01T00:27:51;7.97;;;3.60;;
9934;SDS011;5006;41.828;23.478;2023-04-01T00:28:58;6.15;;;3.72;;
9934;SDS011;5006;41.828;23.478;2023-04-01T00:30:03;9.85;;;5.70;;
9934;SDS011;5006;41.828;23.478;2023-04-01T00:31:10;4.35;;;2.78;;
9934;SDS011;5006;41.828;23.478;2023-04-01T00:32:17;5.53;;;3.05;;
9934;SDS011;5006;41.828;23.478;2023-04-01T00:33:22;5.00;;;3.20;;
9934;SDS011;5006;41.828;23.478;2023-04-01T00:34:28;5.22;;;2.95;;
9934;SDS011;5006;41.828;23.478;2023-04-01T00:35:32;5.32;;;2.75;;
9934;SDS011;5006;41.828;23.478;2023-04-01T00:36:38;5.15;;;3.25;;
9934;SDS011;5006;41.828;23.478;2023-04-01T00:37:43;7.32;;;3.30;;
9934;SDS011;5006;41.828;23.478;2023-04-01T00:38:49;5.03;;;3.05;;
9934;SDS011;5006;41.828;23.478;2023-04-01T00:39:54;5.55;;;3.15;;
9934;SDS011;5006;41.828;23.478;2023-04-01T00:41:01;5.75;;;3.00;;
9934;SDS011;5006;41.828;23.478;2023-04-01T00:42:05;7.03;;;3.13;;
9934;SDS011;5006;41.828;23.478;2023-04-01T00:43:11;3.95;;;2.40;;
9934;SDS011;5006;41.828;23.478;2023-04-01T00:44:18;5.03;;;2.65;;
9934;SDS011;5006;41.828;23.478;2023-04-01T00:45:30;3.75;;;2.53;;
9934;SDS011;5006;41.828;23.478;2023-04-01T00:46:38;4.57;;;2.70;;
9934;SDS011;5006;41.828;23.478;2023-04-01T00:47:44;4.68;;;2.60;;
9934;SDS011;5006;41.828;23.478;2023-04-01T00:48:50;7.40;;;3.42;;
9934;SDS011;5006;41.828;23.478;2023-04-01T00:49:58;6.03;;;2.67;;
9934;SDS011;5006;41.828;23.478;2023-04-01T00:51:05;5.50;;;2.92;;
9934;SDS011;5006;41.828;23.478;2023-04-01T00:52:14;7.15;;;3.30;;
9934;SDS011;5006;41.828;23.478;2023-04-01T00:53:21;4.00;;;2.80;;
9934;SDS011;5006;41.828;23.478;2023-04-01T00:54:29;4.88;;;2.72;;
9934;SDS011;5006;41.828;23.478;2023-04-01T00:55:35;4.93;;;2.72;;
9934;SDS011;5006;41.828;23.478;2023-04-01T00:56:46;4.30;;;2.75;;
9934;SDS011;5006;41.828;23.478;2023-04-01T00:57:59;5.97;;;2.85;;
9934;SDS011;5006;41.828;23.478;2023-04-01T00:59:06;5.90;;;2.80;;
9934;SDS011;5006;41.828;23.478;2023-04-01T01:00:16;5.53;;;2.63;;
9934;SDS011;5006;41.828;23.478;2023-04-01T01:01:21;5.00;;;2.40;;
9934;SDS011;5006;41.828;23.478;2023-04-01T01:02:30;4.38;;;2.53;;
9934;SDS011;5006;41.828;23.478;2023-04-01T01:03:37;4.85;;;2.80;;
9934;SDS011;5006;41.828;23.478;2023-04-01T01:04:42;3.90;;;3.10;;
9934;SDS011;5006;41.828;23.478;2023-04-01T01:05:55;5.43;;;3.20;;
9934;SDS011;5006;41.828;23.478;2023-04-01T01:07:18;6.00;;;2.60;;
9934;SDS011;5006;41.828;23.478;2023-04-01T01:08:34;5.32;;;2.22;;
9934;SDS011;5006;41.828;23.478;2023-04-01T01:09:47;6.03;;;2.58;;
9934;SDS011;5006;41.828;23.478;2023-04-01T01:11:00;4.78;;;2.58;;
9934;SDS011;5006;41.828;23.478;2023-04-01T01:12:10;5.90;;;3.20;;
9934;SDS011;5006;41.828;23.478;2023-04-01T01:13:20;6.63;;;3.50;;
9934;SDS011;5006;41.828;23.478;2023-04-01T01:14:34;5.57;;;3.40;;
9934;SDS011;5006;41.828;23.478;2023-04-01T01:15:51;8.15;;;3.70;;
9934;SDS011;5006;41.828;23.478;2023-04-01T01:17:02;7.88;;;3.90;;
9934;SDS011;5006;41.828;23.478;2023-04-01T01:18:18;6.70;;;3.90;;
9934;SDS011;5006;41.828;23.478;2023-04-01T01:19:35;5.93;;;3.33;;
9934;SDS011;5006;41.828;23.478;2023-04-01T01:21:05;3.25;;;2.67;;
9934;SDS011;5006;41.828;23.478;2023-04-01T01:22:40;6.60;;;2.70;;
9934;SDS011;5006;41.828;23.478;2023-04-01T01:25:40;6.07;;;3.08;;
9934;SDS011;5006;41.828;23.478;2023-04-01T01:26:59;4.15;;;2.80;;
9934;SDS011;5006;41.828;23.478;2023-04-01T01:28:15;5.63;;;2.88;;
9934;SDS011;5006;41.828;23.478;2023-04-01T01:29:37;3.03;;;2.30;;
9934;SDS011;5006;41.828;23.478;2023-04-01T01:30:50;4.53;;;2.53;;
9934;SDS011;5006;41.828;23.478;2023-04-01T01:32:03;3.45;;;2.20;;
9934;SDS011;5006;41.828;23.478;2023-04-01T01:34:51;3.63;;;2.47;;
9934;SDS011;5006;41.828;23.478;2023-04-01T01:36:05;4.32;;;2.15;;
9934;SDS011;5006;41.828;23.478;2023-04-01T01:37:16;4.93;;;2.25;;
9934;SDS011;5006;41.828;23.478;2023-04-01T01:38:24;3.70;;;2.25;;
9934;SDS011;5006;41.828;23.478;2023-04-01T01:39:42;4.03;;;2.15;;
9934;SDS011;5006;41.828;23.478;2023-04-01T01:40:50;4.50;;;2.58;;
9934;SDS011;5006;41.828;23.478;2023-04-01T01:42:00;3.92;;;2.28;;
9934;SDS011;5006;41.828;23.478;2023-04-01T01:43:09;4.45;;;2.28;;
9934;SDS011;5006;41.828;23.478;2023-04-01T01:44:18;6.00;;;2.47;;
9934;SDS011;5006;41.828;23.478;2023-04-01T01:45:25;3.53;;;2.80;;
9934;SDS011;5006;41.828;23.478;2023-04-01T01:46:32;6.88;;;3.63;;
9934;SDS011;5006;41.828;23.478;2023-04-01T01:47:37;6.55;;;4.13;;
9934;SDS011;5006;41.828;23.478;2023-04-01T01:48:45;6.57;;;4.30;;
9934;SDS011;5006;41.828;23.478;2023-04-01T01:49:53;5.75;;;3.35;;
9934;SDS011;5006;41.828;23.478;2023-04-01T01:51:00;5.15;;;2.80;;
9934;SDS011;5006;41.828;23.478;2023-04-01T01:52:07;6.72;;;3.28;;
9934;SDS011;5006;41.828;23.478;2023-04-01T01:53:17;5.15;;;3.15;;
9934;SDS011;5006;41.828;23.478;2023-04-01T01:54:22;6.07;;;2.72;;
9934;SDS011;5006;41.828;23.478;2023-04-01T01:55:29;4.88;;;2.88;;
9934;SDS011;5006;41.828;23.478;2023-04-01T01:56:35;5.72;;;3.30;;
9934;SDS011;5006;41.828;23.478;2023-04-01T01:57:41;5.40;;;2.70;;
9934;SDS011;5006;41.828;23.478;2023-04-01T01:58:54;6.03;;;2.80;;
9934;SDS011;5006;41.828;23.478;2023-04-01T02:00:04;4.22;;;2.17;;
9934;SDS011;5006;41.828;23.478;2023-04-01T02:01:18;6.85;;;2.67;;
9934;SDS011;5006;41.828;23.478;2023-04-01T02:02:28;6.53;;;2.60;;
9934;SDS011;5006;41.828;23.478;2023-04-01T02:03:36;6.50;;;2.40;;
9934;SDS011;5006;41.828;23.478;2023-04-01T02:04:44;5.88;;;2.88;;
9934;SDS011;5006;41.828;23.478;2023-04-01T02:05:50;5.10;;;2.53;;
9934;SDS011;5006;41.828;23.478;2023-04-01T02:06:59;5.35;;;2.70;;
9934;SDS011;5006;41.828;23.478;2023-04-01T02:08:11;3.78;;;2.25;;
9934;SDS011;5006;41.828;23.478;2023-04-01T02:09:20;5.55;;;2.30;;
9934;SDS011;5006;41.828;23.478;2023-04-01T02:10:25;4.43;;;2.35;;
9934;SDS011;5006;41.828;23.478;2023-04-01T02:11:34;4.50;;;2.58;;
9934;SDS011;5006;41.828;23.478;2023-04-01T02:12:42;6.93;;;2.83;;
9934;SDS011;5006;41.828;23.478;2023-04-01T02:13:52;4.38;;;2.30;;
9934;SDS011;5006;41.828;23.478;2023-04-01T02:15:00;5.40;;;2.65;;
9934;SDS011;5006;41.828;23.478;2023-04-01T02:16:11;5.85;;;3.58;;
9934;SDS011;5006;41.828;23.478;2023-04-01T02:17:21;5.50;;;3.70;;
9934;SDS011;5006;41.828;23.478;2023-04-01T02:18:30;6.35;;;4.05;;
9934;SDS011;5006;41.828;23.478;2023-04-01T02:19:40;7.53;;;3.95;;
9934;SDS011;5006;41.828;23.478;2023-04-01T02:20:51;5.43;;;3.58;;
9934;SDS011;5006;41.828;23.478;2023-04-01T02:21:57;6.05;;;2.63;;
9934;SDS011;5006;41.828;23.478;2023-04-01T02:23:04;7.97;;;3.40;;
9934;SDS011;5006;41.828;23.478;2023-04-01T02:24:14;6.28;;;3.47;;
9934;SDS011;5006;41.828;23.478;2023-04-01T02:25:21;3.90;;;3.17;;
9934;SDS011;5006;41.828;23.478;2023-04-01T02:26:29;4.85;;;3.00;;
9934;SDS011;5006;41.828;23.478;2023-04-01T02:27:35;7.50;;;2.95;;
9934;SDS011;5006;41.828;23.478;2023-04-01T02:28:40;3.53;;;2.30;;
9934;SDS011;5006;41.828;23.478;2023-04-01T02:29:49;4.30;;;2.65;;
9934;SDS011;5006;41.828;23.478;2023-04-01T02:30:54;5.70;;;2.58;;
9934;SDS011;5006;41.828;23.478;2023-04-01T02:32:03;5.32;;;2.40;;
9934;SDS011;5006;41.828;23.478;2023-04-01T02:33:10;8.80;;;2.88;;
9934;SDS011;5006;41.828;23.478;2023-04-01T02:34:15;4.28;;;2.30;;
9934;SDS011;5006;41.828;23.478;2023-04-01T02:35:20;4.03;;;2.90;;
9934;SDS011;5006;41.828;23.478;2023-04-01T02:36:26;6.70;;;2.65;;
9934;SDS011;5006;41.828;23.478;2023-04-01T02:37:31;5.05;;;2.88;;
9934;SDS011;5006;41.828;23.478;2023-04-01T02:38:37;4.90;;;2.97;;
9934;SDS011;5006;41.828;23.478;2023-04-01T02:39:44;4.43;;;2.60;;
9934;SDS011;5006;41.828;23.478;2023-04-01T02:40:50;5.88;;;2.40;;
9934;SDS011;5006;41.828;23.478;2023-04-01T02:42:01;5.30;;;2.85;;
9934;SDS011;5006;41.828;23.478;2023-04-01T02:43:07;6.07;;;2.63;;
9934;SDS011;5006;41.828;23.478;2023-04-01T02:44:12;6.82;;;2.83;;
9934;SDS011;5006;41.828;23.478;2023-04-01T02:45:20;5.07;;;2.75;;
9934;SDS011;5006;41.828;23.478;2023-04-01T02:46:24;6.22;;;2.75;;
9934;SDS011;5006;41.828;23.478;2023-04-01T02:47:30;5.60;;;2.63;;
9934;SDS011;5006;41.828;23.478;2023-04-01T02:48:35;4.75;;;2.45;;
9934;SDS011;5006;41.828;23.478;2023-04-01T02:49:41;3.67;;;2.25;;
9934;SDS011;5006;41.828;23.478;2023-04-01T02:50:46;3.72;;;2.50;;
9934;SDS011;5006;41.828;23.478;2023-04-01T02:51:51;3.83;;;2.38;;
9934;SDS011;5006;41.828;23.478;2023-04-01T02:52:56;6.80;;;2.95;;
9934;SDS011;5006;41.828;23.478;2023-04-01T02:54:02;5.28;;;2.80;;
9934;SDS011;5006;41.828;23.478;2023-04-01T02:55:09;6.50;;;2.92;;
9934;SDS011;5006;41.828;23.478;2023-04-01T02:56:14;3.72;;;2.60;;
9934;SDS011;5006;41.828;23.478;2023-04-01T02:57:19;5.75;;;2.90;;
9934;SDS011;5006;41.828;23.478;2023-04-01T02:58:25;5.00;;;2.70;;
9934;SDS011;5006;41.828;23.478;2023-04-01T02:59:29;5.80;;;3.17;;
9934;SDS011;5006;41.828;23.478;2023-04-01T03:00:35;4.22;;;2.67;;
9934;SDS011;5006;41.828;23.478;2023-04-01T03:01:40;10.10;;;9.05;;
9934;SDS011;5006;41.828;23.478;2023-04-01T03:02:46;8.77;;;6.57;;
9934;SDS011;5006;41.828;23.478;2023-04-01T03:03:51;9.15;;;5.20;;
9934;SDS011;5006;41.828;23.478;2023-04-01T03:04:56;4.85;;;2.80;;
9934;SDS011;5006;41.828;23.478;2023-04-01T03:06:04;9.13;;;2.92;;
9934;SDS011;5006;41.828;23.478;2023-04-01T03:07:10;3.63;;;2.63;;
9934;SDS011;5006;41.828;23.478;2023-04-01T03:08:16;6.20;;;3.55;;
9934;SDS011;5006;41.828;23.478;2023-04-01T03:09:22;5.25;;;3.22;;
9934;SDS011;5006;41.828;23.478;2023-04-01T03:10:28;4.50;;;2.30;;
9934;SDS011;5006;41.828;23.478;2023-04-01T03:11:34;4.97;;;2.50;;
9934;SDS011;5006;41.828;23.478;2023-04-01T03:12:39;5.35;;;2.95;;
9934;SDS011;5006;41.828;23.478;2023-04-01T03:13:45;5.20;;;2.90;;
9934;SDS011;5006;41.828;23.478;2023-04-01T03:14:50;5.38;;;2.47;;
9934;SDS011;5006;41.828;23.478;2023-04-01T03:15:56;7.50;;;2.78;;
9934;SDS011;5006;41.828;23.478;2023-04-01T03:17:01;3.55;;;2.63;;
9934;SDS011;5006;41.828;23.478;2023-04-01T03:18:07;4.50;;;2.90;;
9934;SDS011;5006;41.828;23.478;2023-04-01T03:19:12;6.70;;;4.40;;
9934;SDS011;5006;41.828;23.478;2023-04-01T03:20:18;8.07;;;4.97;;
9934;SDS011;5006;41.828;23.478;2023-04-01T03:21:24;6.05;;;3.97;;
9934;SDS011;5006;41.828;23.478;2023-04-01T03:22:29;7.72;;;3.85;;
9934;SDS011;5006;41.828;23.478;2023-04-01T03:23:34;5.57;;;3.70;;
9934;SDS011;5006;41.828;23.478;2023-04-01T03:24:39;7.57;;;4.45;;
9934;SDS011;5006;41.828;23.478;2023-04-01T03:25:46;8.00;;;3.92;;
9934;SDS011;5006;41.828;23.478;2023-04-01T03:26:53;7.35;;;4.10;;
9934;SDS011;5006;41.828;23.478;2023-04-01T03:27:58;7.32;;;4.30;;
9934;SDS011;5006;41.828;23.478;2023-04-01T03:29:03;7.63;;;4.90;;
9934;SDS011;5006;41.828;23.478;2023-04-01T03:30:09;6.65;;;4.28;;
9934;SDS011;5006;41.828;23.478;2023-04-01T03:31:22;6.25;;;4.22;;
9934;SDS011;5006;41.828;23.478;2023-04-01T03:32:32;7.80;;;4.55;;
9934;SDS011;5006;41.828;23.478;2023-04-01T03:33:37;6.75;;;4.32;;
9934;SDS011;5006;41.828;23.478;2023-04-01T03:34:43;7.97;;;4.05;;
9934;SDS011;5006;41.828;23.478;2023-04-01T03:35:47;5.63;;;3.90;;
9934;SDS011;5006;41.828;23.478;2023-04-01T03:36:56;7.15;;;4.25;;
9934;SDS011;5006;41.828;23.478;2023-04-01T03:38:03;5.28;;;3.80;;
9934;SDS011;5006;41.828;23.478;2023-04-01T03:39:08;5.40;;;3.72;;
9934;SDS011;5006;41.828;23.478;2023-04-01T03:40:19;8.32;;;4.18;;
9934;SDS011;5006;41.828;23.478;2023-04-01T03:41:26;6.10;;;4.15;;
9934;SDS011;5006;41.828;23.478;2023-04-01T03:42:32;4.85;;;3.78;;
9934;SDS011;5006;41.828;23.478;2023-04-01T03:43:37;5.35;;;3.85;;
9934;SDS011;5006;41.828;23.478;2023-04-01T03:44:42;5.30;;;4.05;;
9934;SDS011;5006;41.828;23.478;2023-04-01T03:45:50;5.65;;;3.72;;
9934;SDS011;5006;41.828;23.478;2023-04-01T03:46:56;5.70;;;3.80;;
9934;SDS011;5006;41.828;23.478;2023-04-01T03:48:01;5.75;;;3.70;;
9934;SDS011;5006;41.828;23.478;2023-04-01T03:49:07;5.75;;;3.55;;
9934;SDS011;5006;41.828;23.478;2023-04-01T03:50:15;6.18;;;3.50;;
9934;SDS011;5006;41.828;23.478;2023-04-01T03:51:21;5.18;;;2.90;;
9934;SDS011;5006;41.828;23.478;2023-04-01T03:52:26;4.03;;;3.15;;
9934;SDS011;5006;41.828;23.478;2023-04-01T03:53:32;5.20;;;3.30;;
9934;SDS011;5006;41.828;23.478;2023-04-01T03:54:38;5.25;;;3.40;;
9934;SDS011;5006;41.828;23.478;2023-04-01T03:55:44;5.22;;;3.50;;
9934;SDS011;5006;41.828;23.478;2023-04-01T03:56:50;7.30;;;3.55;;
9934;SDS011;5006;41.828;23.478;2023-04-01T03:57:56;6.68;;;3.70;;
9934;SDS011;5006;41.828;23.478;2023-04-01T03:59:01;4.80;;;3.70;;
9934;SDS011;5006;41.828;23.478;2023-04-01T04:00:08;9.00;;;4.55;;
9934;SDS011;5006;41.828;23.478;2023-04-01T04:01:18;7.38;;;3.80;;
9934;SDS011;5006;41.828;23.478;2023-04-01T04:02:27;8.13;;;4.20;;
9934;SDS011;5006;41.828;23.478;2023-04-01T04:03:32;7.13;;;4.28;;
9934;SDS011;5006;41.828;23.478;2023-04-01T04:04:38;6.95;;;4.15;;
9934;SDS011;5006;41.828;23.478;2023-04-01T04:05:46;6.50;;;3.40;;
9934;SDS011;5006;41.828;23.478;2023-04-01T04:06:53;8.10;;;3.58;;
9934;SDS011;5006;41.828;23.478;2023-04-01T04:08:00;5.28;;;3.30;;
9934;SDS011;5006;41.828;23.478;2023-04-01T04:09:05;7.40;;;4.20;;
9934;SDS011;5006;41.828;23.478;2023-04-01T04:10:10;6.60;;;4.18;;
9934;SDS011;5006;41.828;23.478;2023-04-01T04:11:16;10.20;;;7.38;;
9934;SDS011;5006;41.828;23.478;2023-04-01T04:12:25;9.18;;;5.82;;
9934;SDS011;5006;41.828;23.478;2023-04-01T04:13:31;9.15;;;6.85;;
9934;SDS011;5006;41.828;23.478;2023-04-01T04:14:39;6.70;;;4.15;;
9934;SDS011;5006;41.828;23.478;2023-04-01T04:15:44;6.30;;;4.00;;
9934;SDS011;5006;41.828;23.478;2023-04-01T04:16:49;6.45;;;4.53;;
9934;SDS011;5006;41.828;23.478;2023-04-01T04:17:55;5.85;;;4.00;;
9934;SDS011;5006;41.828;23.478;2023-04-01T04:19:00;7.90;;;3.85;;
9934;SDS011;5006;41.828;23.478;2023-04-01T04:20:05;7.43;;;4.50;;
9934;SDS011;5006;41.828;23.478;2023-04-01T04:21:12;6.28;;;3.22;;
9934;SDS011;5006;41.828;23.478;2023-04-01T04:22:19;6.38;;;4.10;;
9934;SDS011;5006;41.828;23.478;2023-04-01T04:23:25;8.30;;;3.92;;
9934;SDS011;5006;41.828;23.478;2023-04-01T04:24:31;10.98;;;4.97;;
9934;SDS011;5006;41.828;23.478;2023-04-01T04:25:52;6.15;;;4.80;;
9934;SDS011;5006;41.828;23.478;2023-04-01T04:26:58;6.38;;;4.63;;
9934;SDS011;5006;41.828;23.478;2023-04-01T04:28:05;8.63;;;4.30;;
9934;SDS011;5006;41.828;23.478;2023-04-01T04:29:10;4.80;;;3.67;;
9934;SDS011;5006;41.828;23.478;2023-04-01T04:30:15;6.00;;;4.18;;
9934;SDS011;5006;41.828;23.478;2023-04-01T04:31:21;8.27;;;4.18;;
9934;SDS011;5006;41.828;23.478;2023-04-01T04:32:29;6.45;;;4.20;;
9934;SDS011;5006;41.828;23.478;2023-04-01T04:33:34;7.55;;;4.50;;
9934;SDS011;5006;41.828;23.478;2023-04-01T04:34:41;6.47;;;4.30;;
9934;SDS011;5006;41.828;23.478;2023-04-01T04:35:46;8.52;;;4.28;;
9934;SDS011;5006;41.828;23.478;2023-04-01T04:36:51;7.43;;;4.28;;
9934;SDS011;5006;41.828;23.478;2023-04-01T04:37:59;6.88;;;4.22;;
9934;SDS011;5006;41.828;23.478;2023-04-01T04:39:04;5.93;;;3.85;;
9934;SDS011;5006;41.828;23.478;2023-04-01T04:40:11;6.07;;;4.30;;
9934;SDS011;5006;41.828;23.478;2023-04-01T04:41:17;6.22;;;4.72;;
9934;SDS011;5006;41.828;23.478;2023-04-01T04:42:27;7.10;;;4.40;;
9934;SDS011;5006;41.828;23.478;2023-04-01T04:43:40;5.43;;;3.47;;
9934;SDS011;5006;41.828;23.478;2023-04-01T04:44:45;6.05;;;3.30;;
9934;SDS011;5006;41.828;23.478;2023-04-01T04:45:51;5.90;;;3.55;;
9934;SDS011;5006;41.828;23.478;2023-04-01T04:46:56;6.07;;;3.40;;
9934;SDS011;5006;41.828;23.478;2023-04-01T04:48:01;6.63;;;3.20;;
9934;SDS011;5006;41.828;23.478;2023-04-01T04:49:06;5.45;;;3.50;;
9934;SDS011;5006;41.828;23.478;2023-04-01T04:50:12;8.48;;;4.57;;
9934;SDS011;5006;41.828;23.478;2023-04-01T04:51:18;7.63;;;4.40;;
9934;SDS011;5006;41.828;23.478;2023-04-01T04:52:24;9.77;;;5.05;;
9934;SDS011;5006;41.828;23.478;2023-04-01T04:53:29;7.72;;;5.40;;
9934;SDS011;5006;41.828;23.478;2023-04-01T04:54:35;7.15;;;4.65;;
9934;SDS011;5006;41.828;23.478;2023-04-01T04:55:42;7.30;;;4.45;;
9934;SDS011;5006;41.828;23.478;2023-04-01T04:57:06;9.27;;;4.88;;
9934;SDS011;5006;41.828;23.478;2023-04-01T04:58:22;7.82;;;4.88;;
9934;SDS011;5006;41.828;23.478;2023-04-01T04:59:29;6.30;;;5.10;;
9934;SDS011;5006;41.828;23.478;2023-04-01T05:00:48;7.07;;;4.70;;
9934;SDS011;5006;41.828;23.478;2023-04-01T05:02:07;11.10;;;7.63;;
9934;SDS011;5006;41.828;23.478;2023-04-01T05:03:12;7.47;;;3.67;;
9934;SDS011;5006;41.828;23.478;2023-04-01T05:04:19;7.47;;;4.53;;
9934;SDS011;5006;41.828;23.478;2023-04-01T05:05:25;6.35;;;3.97;;
9934;SDS011;5006;41.828;23.478;2023-04-01T05:06:30;7.20;;;4.38;;
9934;SDS011;5006;41.828;23.478;2023-04-01T05:07:36;7.55;;;3.95;;
9934;SDS011;5006;41.828;23.478;2023-04-01T05:08:41;7.20;;;4.35;;
9934;SDS011;5006;41.828;23.478;2023-04-01T05:09:47;6.97;;;4.57;;
9934;SDS011;5006;41.828;23.478;2023-04-01T05:10:53;7.97;;;4.38;;
9934;SDS011;5006;41.828;23.478;2023-04-01T05:11:59;8.45;;;4.75;;
9934;SDS011;5006;41.828;23.478;2023-04-01T05:13:09;7.47;;;4.38;;
9934;SDS011;5006;41.828;23.478;2023-04-01T05:14:15;6.97;;;4.88;;
9934;SDS011;5006;41.828;23.478;2023-04-01T05:15:28;6.32;;;4.70;;
9934;SDS011;5006;41.828;23.478;2023-04-01T05:16:33;7.97;;;4.50;;
9934;SDS011;5006;41.828;23.478;2023-04-01T05:17:38;9.35;;;4.82;;
9934;SDS011;5006;41.828;23.478;2023-04-01T05:18:44;7.82;;;4.82;;
9934;SDS011;5006;41.828;23.478;2023-04-01T05:19:52;11.82;;;4.80;;
9934;SDS011;5006;41.828;23.478;2023-04-01T05:20:59;8.95;;;4.95;;
9934;SDS011;5006;41.828;23.478;2023-04-01T05:22:03;7.88;;;5.13;;
9934;SDS011;5006;41.828;23.478;2023-04-01T05:23:09;9.82;;;6.15;;
9934;SDS011;5006;41.828;23.478;2023-04-01T05:24:15;14.07;;;8.32;;
9934;SDS011;5006;41.828;23.478;2023-04-01T05:25:22;13.10;;;9.05;;
9934;SDS011;5006;41.828;23.478;2023-04-01T05:26:27;13.43;;;8.90;;
9934;SDS011;5006;41.828;23.478;2023-04-01T05:27:33;14.63;;;8.60;;
9934;SDS011;5006;41.828;23.478;2023-04-01T05:28:38;13.80;;;8.73;;
9934;SDS011;5006;41.828;23.478;2023-04-01T05:29:45;12.48;;;7.30;;
9934;SDS011;5006;41.828;23.478;2023-04-01T05:31:16;10.68;;;6.40;;
9934;SDS011;5006;41.828;23.478;2023-04-01T05:32:25;13.10;;;9.48;;
9934;SDS011;5006;41.828;23.478;2023-04-01T05:33:30;15.25;;;9.48;;
9934;SDS011;5006;41.828;23.478;2023-04-01T05:34:36;18.55;;;12.63;;
9934;SDS011;5006;41.828;23.478;2023-04-01T05:35:41;17.10;;;13.10;;
9934;SDS011;5006;41.828;23.478;2023-04-01T05:36:47;27.02;;;20.15;;
9934;SDS011;5006;41.828;23.478;2023-04-01T05:37:52;31.83;;;23.58;;
9934;SDS011;5006;41.828;23.478;2023-04-01T05:38:58;14.02;;;10.45;;
9934;SDS011;5006;41.828;23.478;2023-04-01T05:40:05;11.77;;;8.68;;
9934;SDS011;5006;41.828;23.478;2023-04-01T05:41:12;10.38;;;6.95;;
9934;SDS011;5006;41.828;23.478;2023-04-01T05:42:21;10.05;;;7.18;;
9934;SDS011;5006;41.828;23.478;2023-04-01T05:43:27;13.93;;;8.65;;
9934;SDS011;5006;41.828;23.478;2023-04-01T05:44:33;15.77;;;9.98;;
9934;SDS011;5006;41.828;23.478;2023-04-01T05:46:02;18.90;;;13.93;;
9934;SDS011;5006;41.828;23.478;2023-04-01T05:47:30;18.77;;;12.38;;
9934;SDS011;5006;41.828;23.478;2023-04-01T05:48:34;20.40;;;13.55;;
9934;SDS011;5006;41.828;23.478;2023-04-01T05:49:40;14.43;;;10.35;;
9934;SDS011;5006;41.828;23.478;2023-04-01T05:50:45;9.05;;;7.15;;
9934;SDS011;5006;41.828;23.478;2023-04-01T05:51:51;8.93;;;7.20;;
9934;SDS011;5006;41.828;23.478;2023-04-01T05:52:56;11.60;;;7.97;;
9934;SDS011;5006;41.828;23.478;2023-04-01T05:54:03;11.43;;;7.07;;
9934;SDS011;5006;41.828;23.478;2023-04-01T05:55:09;11.82;;;7.63;;
9934;SDS011;5006;41.828;23.478;2023-04-01T05:56:14;12.93;;;7.65;;
9934;SDS011;5006;41.828;23.478;2023-04-01T05:57:25;11.27;;;7.50;;
9934;SDS011;5006;41.828;23.478;2023-04-01T05:58:29;10.02;;;7.50;;
9934;SDS011;5006;41.828;23.478;2023-04-01T05:59:35;8.57;;;6.95;;
9934;SDS011;5006;41.828;23.478;2023-04-01T06:00:41;13.95;;;9.02;;
9934;SDS011;5006;41.828;23.478;2023-04-01T06:01:48;21.35;;;17.70;;
9934;SDS011;5006;41.828;23.478;2023-04-01T06:02:54;15.75;;;11.15;;
9934;SDS011;5006;41.828;23.478;2023-04-01T06:04:00;12.45;;;9.43;;
9934;SDS011;5006;41.828;23.478;2023-04-01T06:05:11;15.18;;;11.40;;
9934;SDS011;5006;41.828;23.478;2023-04-01T06:06:20;11.07;;;7.30;;
9934;SDS011;5006;41.828;23.478;2023-04-01T06:07:31;11.25;;;7.35;;
9934;SDS011;5006;41.828;23.478;2023-04-01T06:08:36;12.00;;;7.60;;
9934;SDS011;5006;41.828;23.478;2023-04-01T06:09:41;11.15;;;7.10;;
9934;SDS011;5006;41.828;23.478;2023-04-01T06:10:53;9.18;;;6.97;;
9934;SDS011;5006;41.828;23.478;2023-04-01T06:13:57;11.60;;;6.85;;
9934;SDS011;5006;41.828;23.478;2023-04-01T06:15:25;8.38;;;5.60;;
9934;SDS011;5006;41.828;23.478;2023-04-01T06:16:39;7.28;;;6.03;;
9934;SDS011;5006;41.828;23.478;2023-04-01T06:19:46;9.30;;;5.55;;
9934;SDS011;5006;41.828;23.478;2023-04-01T06:20:57;11.88;;;6.57;;
9934;SDS011;5006;41.828;23.478;2023-04-01T06:22:24;9.40;;;5.85;;
9934;SDS011;5006;41.828;23.478;2023-04-01T06:23:48;11.77;;;6.30;;
9934;SDS011;5006;41.828;23.478;2023-04-01T06:25:10;6.32;;;4.70;;
9934;SDS011;5006;41.828;23.478;2023-04-01T06:26:27;7.20;;;5.38;;
9934;SDS011;5006;41.828;23.478;2023-04-01T06:27:44;8.40;;;5.55;;
9934;SDS011;5006;41.828;23.478;2023-04-01T06:30:32;12.02;;;8.32;;
9934;SDS011;5006;41.828;23.478;2023-04-01T06:34:52;14.82;;;11.65;;
9934;SDS011;5006;41.828;23.478;2023-04-01T06:36:25;23.63;;;12.90;;
9934;SDS011;5006;41.828;23.478;2023-04-01T06:39:37;18.92;;;10.60;;
9934;SDS011;5006;41.828;23.478;2023-04-01T06:41:21;14.63;;;9.25;;
9934;SDS011;5006;41.828;23.478;2023-04-01T06:42:57;13.23;;;9.07;;
9934;SDS011;5006;41.828;23.478;2023-04-01T06:44:29;13.25;;;7.90;;
9934;SDS011;5006;41.828;23.478;2023-04-01T06:46:06;9.27;;;6.38;;
9934;SDS011;5006;41.828;23.478;2023-04-01T06:47:54;14.88;;;10.75;;
9934;SDS011;5006;41.828;23.478;2023-04-01T06:49:37;13.15;;;9.07;;
9934;SDS011;5006;41.828;23.478;2023-04-01T06:51:17;10.32;;;7.80;;
9934;SDS011;5006;41.828;23.478;2023-04-01T06:53:10;10.25;;;7.22;;
9934;SDS011;5006;41.828;23.478;2023-04-01T06:54:40;9.43;;;6.25;;
9934;SDS011;5006;41.828;23.478;2023-04-01T06:56:20;10.25;;;6.88;;
9934;SDS011;5006;41.828;23.478;2023-04-01T06:57:38;7.35;;;6.45;;
9934;SDS011;5006;41.828;23.478;2023-04-01T06:58:50;8.25;;;5.10;;
9934;SDS011;5006;41.828;23.478;2023-04-01T06:59:59;12.73;;;8.80;;
9934;SDS011;5006;41.828;23.478;2023-04-01T07:01:07;14.88;;;10.98;;
9934;SDS011;5006;41.828;23.478;2023-04-01T07:02:18;17.33;;;10.88;;
9934;SDS011;5006;41.828;23.478;2023-04-01T07:03:30;14.77;;;10.52;;
9934;SDS011;5006;41.828;23.478;2023-04-01T07:04:42;16.60;;;11.18;;
9934;SDS011;5006;41.828;23.478;2023-04-01T07:05:51;12.63;;;8.38;;
9934;SDS011;5006;41.828;23.478;2023-04-01T07:07:01;11.43;;;8.18;;
9934;SDS011;5006;41.828;23.478;2023-04-01T07:08:17;10.57;;;7.35;;
9934;SDS011;5006;41.828;23.478;2023-04-01T07:09:27;11.10;;;8.02;;
9934;SDS011;5006;41.828;23.478;2023-04-01T07:10:56;9.48;;;6.00;;
9934;SDS011;5006;41.828;23.478;2023-04-01T07:12:29;6.85;;;5.10;;
9934;SDS011;5006;41.828;23.478;2023-04-01T07:14:00;9.43;;;6.30;;
9934;SDS011;5006;41.828;23.478;2023-04-01T07:15:12;9.00;;;7.13;;
9934;SDS011;5006;41.828;23.478;2023-04-01T07:16:24;8.95;;;5.35;;